หน้าหลัก
METAR-TAF:

METAR-TAF

ท่าอากาศยาน :

Las Cruces International Airport

Las Cruces, นิวเม็กซิโก, สหรัฐอเมริกา

ละติจูด: 32-17-22N, ลองจิจูด: 106-55-19W, ความสูง: 1358 ม.

การสังเกตสภาพอากาศปัจจุบัน

รายงานได้ทำขึ้นเมื่อ 29 นาทีที่แล้ว ณ เวลา 11:15 UTC
ลม 5 นอตจากตะวันตก/ตะวันตกเฉียงเหนือ
อุณหภูมิ 15°C
ความชื้น 17%
ความกดอากาศ 1019 hPa
ทัศนวิสัย: 16.1 กม.
ท้องฟ้าแจ่มใส

METAR: KLRU 271115Z AUTO 29005KT 10SM CLR 15/M10 A3009 RMK AO2 T01461103

เวลา: 05:44 (11:44 UTC)

การพยากรณ์

รายงานได้ทำขึ้นเมื่อ 6 ชั่วโมงและ 21 นาทีที่แล้ว ณ เวลา 05:23 UTC
การพยากรณ์มีผลตั้งแต่วันที่ 27 ณ เวลา 06 UTC จนถึงวันที่ 28 ณ เวลา 06 UTC
ลม 8 นอตจากตะวันตก
ทัศนวิสัย: 10 กม.
ท้องฟ้าแจ่มใส
จาก 27 ณ เวลา 1800 UTC
ลม 10 นอตจากตะวันตก/ตะวันตกเฉียงใต้โดยมีลมกระโชกได้ถึง18 นอต
ทัศนวิสัย: 10 กม.
ท้องฟ้าแจ่มใส
จาก 28 ณ เวลา 0200 UTC
ลม 6 นอตจากตะวันตก
ทัศนวิสัย: 10 กม.
ท้องฟ้าแจ่มใส

TAF: KLRU 270523Z 2706/2806 27008KT P6SM SKC FM271800 24010G18KT P6SM SKC FM280200 28006KT P6SM SKC

สังเกตการณ์สภาพอากาศและพยากรณ์อากาศของสนามบินมากกว่า 4000 แห่ง (รายงาน METAR และ TAF).

สถานีที่ดูได้จะแสดงไว้ด้วยจุดสีเหลืองและสีแดงบนแผนที่.

เลื่อนเมาส์ไปเหนือจุดเพื่อดูชื่อสถานี.

แล้วคลิกเพื่อดูสังเกตการณ์และการพยากรณ์สภาพอากาศ.

ในการเปลี่ยนแผนที่: คลิกที่ปุ่มสีเขียวที่มีกากบาทสีดำเพื่อซูมเข้า; ที่ปุ่มสีเขียวที่มีขีดเพื่อซูมออก; หรือที่ลูกศรสีเขียวเพื่อไปยังแผนที่ที่อยู่ติดกัน.


METAR-TAF: